createdAt,value
2018-12-19T00:01:33.263Z,21.77
2018-12-19T00:04:01.954Z,21.70
2018-12-19T00:06:30.528Z,22.40
2018-12-19T00:09:03.112Z,22.70
2018-12-19T00:11:30.034Z,18.67
2018-12-19T00:13:58.830Z,19.17
2018-12-19T00:16:27.513Z,20.67
2018-12-19T00:18:56.059Z,26.00
2018-12-19T00:21:24.781Z,29.33
2018-12-19T00:23:53.505Z,34.57
2018-12-19T00:26:22.250Z,30.77
2018-12-19T00:28:50.886Z,34.57
2018-12-19T00:31:19.523Z,29.67
2018-12-19T00:33:48.072Z,29.63
2018-12-19T00:36:16.794Z,29.47
2018-12-19T00:38:45.555Z,27.93
2018-12-19T00:41:14.223Z,28.03
2018-12-19T00:43:43.160Z,29.17
2018-12-19T00:46:11.724Z,26.00
2018-12-19T00:48:40.489Z,25.43
2018-12-19T00:51:09.258Z,27.57
2018-12-19T00:53:37.897Z,27.37
2018-12-19T00:56:07.059Z,26.20
2018-12-19T00:58:35.988Z,24.00
2018-12-19T01:01:04.696Z,26.57
2018-12-19T01:03:33.328Z,27.50
2018-12-19T01:06:02.067Z,27.53
2018-12-19T01:08:30.731Z,27.57
2018-12-19T01:10:59.261Z,25.27
2018-12-19T01:13:28.154Z,25.93
2018-12-19T01:15:56.840Z,28.87
2018-12-19T01:18:25.836Z,30.37
2018-12-19T01:20:54.508Z,23.80
2018-12-19T01:23:23.196Z,23.47
2018-12-19T01:25:52.055Z,25.40
2018-12-19T01:28:20.644Z,21.03
2018-12-19T01:30:49.272Z,24.20
2018-12-19T01:33:17.834Z,25.50
2018-12-19T01:35:46.572Z,20.40
2018-12-19T01:38:15.233Z,24.13
2018-12-19T01:40:43.777Z,23.43
2018-12-19T01:43:12.376Z,27.93
2018-12-19T01:45:41.032Z,27.40
2018-12-19T01:48:09.970Z,25.73
2018-12-19T01:50:38.820Z,27.57
2018-12-19T01:53:07.638Z,26.53
2018-12-19T01:55:36.466Z,25.27
2018-12-19T01:58:05.493Z,27.47
2018-12-19T02:00:34.736Z,24.53
2018-12-19T02:03:03.552Z,28.50
2018-12-19T02:05:32.188Z,26.53
2018-12-19T02:08:01.022Z,28.03
2018-12-19T02:10:29.852Z,32.00
2018-12-19T02:12:58.596Z,33.50
2018-12-19T02:15:27.313Z,34.13
2018-12-19T02:17:55.883Z,32.70
2018-12-19T02:20:24.709Z,34.90
2018-12-19T02:22:53.290Z,34.30
2018-12-19T02:25:21.926Z,36.17
2018-12-19T02:27:51.059Z,31.07
2018-12-19T02:30:19.800Z,35.57
2018-12-19T02:32:48.554Z,31.37
2018-12-19T02:35:17.302Z,37.37
2018-12-19T02:37:45.909Z,30.90
2018-12-19T02:40:14.460Z,31.00
2018-12-19T02:42:43.023Z,33.67
2018-12-19T02:45:12.124Z,35.87
2018-12-19T02:47:40.955Z,28.27
2018-12-19T02:50:09.653Z,28.57
2018-12-19T02:52:38.323Z,27.47
2018-12-19T02:55:07.249Z,25.80
2018-12-19T02:57:35.862Z,30.73
2018-12-19T03:00:06.769Z,29.40
2018-12-19T03:02:35.519Z,28.70
2018-12-19T03:05:05.126Z,29.77
2018-12-19T03:07:33.971Z,30.00
2018-12-19T03:10:02.679Z,32.63
2018-12-19T03:12:31.404Z,29.00
2018-12-19T03:15:00.270Z,28.27
2018-12-19T03:17:28.857Z,33.03
2018-12-19T03:19:57.542Z,29.43
2018-12-19T03:22:26.417Z,36.47
2018-12-19T03:24:55.206Z,33.83
2018-12-19T03:27:24.039Z,31.17
2018-12-19T03:29:52.689Z,29.53
2018-12-19T03:32:21.395Z,34.10
2018-12-19T03:34:50.110Z,35.90
2018-12-19T03:37:18.701Z,33.37
2018-12-19T03:39:50.217Z,29.50
2018-12-19T03:42:17.931Z,33.60
2018-12-19T03:44:46.516Z,36.63
2018-12-19T03:47:15.259Z,30.40
2018-12-19T03:49:44.178Z,31.27
2018-12-19T03:52:12.913Z,33.33
2018-12-19T03:54:41.658Z,33.43
2018-12-19T03:57:11.078Z,32.37
2018-12-19T03:59:41.202Z,30.90
2018-12-19T04:02:10.438Z,29.70
2018-12-19T04:04:39.269Z,27.70
2018-12-19T04:07:07.983Z,25.23
2018-12-19T04:09:36.936Z,31.67
2018-12-19T04:12:05.963Z,29.90
2018-12-19T04:14:34.693Z,27.90
2018-12-19T04:17:03.533Z,30.73
2018-12-19T04:19:32.227Z,35.43
2018-12-19T04:22:01.123Z,30.60
2018-12-19T04:24:29.596Z,31.13
2018-12-19T04:26:58.071Z,26.13
2018-12-19T04:29:27.394Z,32.10
2018-12-19T04:31:56.289Z,29.90
2018-12-19T04:34:25.059Z,26.40
2018-12-19T04:36:54.478Z,29.80
2018-12-19T04:39:23.312Z,26.80
2018-12-19T04:41:51.947Z,29.90
2018-12-19T04:44:20.741Z,32.00
2018-12-19T04:46:49.288Z,28.70
2018-12-19T04:49:17.931Z,32.90
2018-12-19T04:51:46.699Z,32.17
2018-12-19T04:54:15.523Z,33.90
2018-12-19T04:56:44.102Z,28.80
2018-12-19T04:59:12.668Z,29.80
2018-12-19T05:01:41.234Z,27.43
2018-12-19T05:04:09.864Z,28.80
2018-12-19T05:06:38.502Z,29.00
2018-12-19T05:09:08.087Z,28.37
2018-12-19T05:11:36.854Z,30.40
2018-12-19T05:14:05.522Z,28.00
2018-12-19T05:16:34.220Z,26.87
2018-12-19T05:19:02.856Z,33.97
2018-12-19T05:21:31.684Z,30.63
2018-12-19T05:24:00.417Z,32.30
2018-12-19T05:26:29.021Z,30.83
2018-12-19T05:28:57.793Z,29.33
2018-12-19T05:31:26.343Z,30.97
2018-12-19T05:33:55.334Z,32.63
2018-12-19T05:36:23.892Z,30.47
2018-12-19T05:38:52.660Z,36.83
2018-12-19T05:41:21.362Z,33.07
2018-12-19T05:43:49.906Z,34.87
2018-12-19T05:46:18.501Z,52.00
2018-12-19T05:48:47.266Z,38.83
2018-12-19T05:51:16.295Z,36.90
2018-12-19T05:53:45.024Z,37.00
2018-12-19T05:56:17.106Z,35.73
2018-12-19T05:58:45.663Z,33.60
2018-12-19T06:01:14.302Z,31.53
2018-12-19T06:03:43.112Z,30.37
2018-12-19T06:06:11.843Z,33.80
2018-12-19T06:08:40.606Z,38.10
2018-12-19T06:11:09.600Z,33.33
2018-12-19T06:13:38.665Z,36.80
2018-12-19T06:16:07.369Z,38.47
2018-12-19T06:18:36.791Z,48.93
2018-12-19T06:21:05.538Z,41.53
2018-12-19T06:23:34.260Z,45.77
2018-12-19T06:26:03.148Z,36.97
2018-12-19T06:28:31.644Z,37.47
2018-12-19T06:31:00.285Z,41.53
2018-12-19T06:33:28.760Z,40.33
2018-12-19T06:35:57.631Z,41.67
2018-12-19T06:38:26.660Z,37.43
2018-12-19T06:40:55.321Z,33.27
2018-12-19T06:43:24.129Z,38.13
2018-12-19T06:45:52.641Z,41.17
2018-12-19T06:48:21.099Z,42.57
2018-12-19T06:50:49.715Z,41.63
2018-12-19T06:53:18.392Z,52.00
2018-12-19T06:55:46.894Z,50.70
2018-12-19T06:58:15.398Z,61.17
2018-12-19T07:00:43.987Z,67.70
2018-12-19T07:03:12.691Z,48.00
2018-12-19T07:05:41.373Z,45.83
2018-12-19T07:08:10.089Z,46.77
2018-12-19T07:10:39.321Z,52.07
2018-12-19T07:13:08.001Z,42.47
2018-12-19T07:15:36.981Z,46.43
2018-12-19T07:18:05.735Z,43.03
2018-12-19T07:20:34.450Z,70.47
2018-12-19T07:23:03.197Z,60.23
2018-12-19T07:25:31.915Z,73.07
2018-12-19T07:28:00.453Z,459.37
2018-12-19T07:30:29.217Z,177.73
2018-12-19T07:32:57.991Z,102.27
2018-12-19T07:35:26.581Z,72.13
2018-12-19T07:37:55.484Z,83.43
2018-12-19T07:40:24.240Z,67.27
2018-12-19T07:42:52.957Z,55.17
2018-12-19T07:45:21.699Z,53.97
2018-12-19T07:47:50.742Z,54.20
2018-12-19T07:50:19.359Z,52.30
2018-12-19T07:52:48.404Z,56.30
2018-12-19T07:55:16.981Z,59.33
2018-12-19T07:57:45.712Z,54.07
2018-12-19T08:00:14.579Z,55.33
2018-12-19T08:02:43.147Z,48.23
2018-12-19T08:05:11.849Z,52.50
2018-12-19T08:07:40.406Z,52.47
2018-12-19T08:10:09.316Z,55.37
2018-12-19T08:12:38.150Z,48.40
2018-12-19T08:15:06.980Z,50.70
2018-12-19T08:17:35.498Z,54.50
2018-12-19T08:20:05.037Z,52.37
2018-12-19T08:22:33.560Z,49.67
2018-12-19T08:25:02.313Z,41.90
2018-12-19T08:27:30.946Z,38.67
2018-12-19T08:29:59.776Z,43.63
2018-12-19T08:32:28.608Z,37.77
2018-12-19T08:34:57.171Z,45.60
2018-12-19T08:37:25.787Z,42.37
2018-12-19T08:39:54.479Z,43.77
2018-12-19T08:42:23.133Z,45.70
2018-12-19T08:44:51.768Z,46.97
2018-12-19T08:47:20.420Z,40.70
2018-12-19T08:49:48.977Z,32.00
2018-12-19T08:52:17.669Z,30.43
2018-12-19T08:54:46.325Z,31.27
2018-12-19T08:57:15.360Z,35.90
2018-12-19T08:59:44.168Z,32.57
2018-12-19T09:02:12.825Z,32.30
2018-12-19T09:04:41.654Z,39.50
2018-12-19T09:07:10.423Z,41.50
2018-12-19T09:09:39.443Z,70.40
2018-12-19T09:12:07.998Z,86.83
2018-12-19T09:14:36.698Z,76.13
2018-12-19T09:17:05.921Z,73.57
2018-12-19T09:19:34.960Z,67.33
2018-12-19T09:22:04.176Z,64.60
2018-12-19T09:24:33.100Z,42.00
2018-12-19T09:27:01.732Z,34.73
2018-12-19T09:29:30.372Z,40.33
2018-12-19T09:31:59.003Z,36.60
2018-12-19T09:34:27.835Z,32.67
2018-12-19T09:36:56.471Z,34.40
2018-12-19T09:39:25.107Z,35.37
2018-12-19T09:41:53.937Z,30.37
2018-12-19T09:44:22.967Z,27.83
2018-12-19T09:46:51.861Z,29.20
2018-12-19T09:49:20.515Z,29.53
2018-12-19T09:51:49.140Z,29.20
2018-12-19T09:54:17.901Z,24.83
2018-12-19T09:56:46.538Z,30.83
2018-12-19T09:59:15.129Z,29.10
2018-12-19T10:01:43.678Z,28.40
2018-12-19T10:04:12.419Z,24.60
2018-12-19T10:06:41.080Z,26.03
2018-12-19T10:09:14.753Z,27.57
2018-12-19T10:11:40.685Z,29.00
2018-12-19T10:14:09.535Z,29.87
2018-12-19T10:16:38.255Z,28.47
2018-12-19T10:19:07.521Z,24.73
2018-12-19T10:21:36.169Z,24.93
2018-12-19T10:24:04.782Z,21.53
2018-12-19T10:26:33.473Z,23.07
2018-12-19T10:29:02.141Z,26.47
2018-12-19T10:31:30.774Z,21.47
2018-12-19T10:33:59.325Z,20.63
2018-12-19T10:36:33.549Z,22.03
2018-12-19T10:39:02.113Z,20.93
2018-12-19T10:41:30.929Z,19.40
2018-12-19T10:43:59.597Z,24.87
2018-12-19T10:46:28.458Z,19.17
2018-12-19T10:48:57.080Z,17.50
2018-12-19T10:51:25.755Z,18.07
2018-12-19T10:53:54.389Z,18.17
2018-12-19T10:56:22.959Z,20.80
2018-12-19T10:58:51.627Z,17.87
2018-12-19T11:01:20.296Z,24.63
2018-12-19T11:03:49.327Z,22.70
2018-12-19T11:06:17.881Z,21.30
2018-12-19T11:08:46.596Z,17.63
2018-12-19T11:11:15.429Z,20.03
2018-12-19T11:13:43.942Z,15.70
2018-12-19T11:16:12.705Z,23.03
2018-12-19T11:18:41.500Z,15.73
2018-12-19T11:21:10.259Z,17.33
2018-12-19T11:23:38.804Z,12.67
2018-12-19T11:26:07.440Z,17.80
2018-12-19T11:28:36.072Z,13.00
2018-12-19T11:31:04.777Z,18.17
2018-12-19T11:33:33.543Z,14.87
2018-12-19T11:36:02.373Z,13.73
2018-12-19T11:38:31.127Z,16.70
2018-12-19T11:40:59.839Z,12.00
2018-12-19T11:43:28.680Z,13.30
2018-12-19T11:45:57.229Z,15.70
2018-12-19T11:48:25.907Z,15.23
2018-12-19T11:50:54.770Z,13.23
2018-12-19T11:53:23.334Z,17.33
2018-12-19T11:55:52.045Z,14.43
2018-12-19T11:58:20.567Z,13.27
2018-12-19T12:00:49.512Z,11.43
2018-12-19T12:03:18.155Z,8.83
2018-12-19T12:05:46.784Z,9.97
2018-12-19T12:08:15.393Z,11.03
2018-12-19T12:10:44.056Z,12.13
2018-12-19T12:13:12.850Z,10.30
2018-12-19T12:15:41.526Z,8.97
2018-12-19T12:18:10.105Z,11.43
2018-12-19T12:20:38.989Z,10.57
2018-12-19T12:23:07.833Z,10.53
2018-12-19T12:25:36.521Z,8.77
2018-12-19T12:28:05.025Z,9.90
2018-12-19T12:30:33.730Z,6.63
2018-12-19T12:33:03.347Z,10.43
2018-12-19T12:35:32.107Z,9.33
2018-12-19T12:38:00.746Z,7.40
2018-12-19T12:40:29.418Z,6.90
2018-12-19T12:42:58.085Z,9.37
2018-12-19T12:45:26.853Z,7.97
2018-12-19T12:47:55.751Z,7.80
2018-12-19T12:50:24.387Z,7.83
2018-12-19T12:52:53.021Z,7.73
2018-12-19T12:55:21.865Z,9.23
2018-12-19T12:57:50.797Z,7.77
2018-12-19T13:00:19.478Z,6.37
2018-12-19T13:02:48.153Z,5.93
2018-12-19T13:05:16.982Z,5.97
2018-12-19T13:07:45.814Z,7.53
2018-12-19T13:10:14.647Z,5.93
2018-12-19T13:12:43.189Z,5.90
2018-12-19T13:15:14.007Z,5.63
2018-12-19T13:17:43.177Z,8.40
2018-12-19T13:20:11.743Z,7.00
2018-12-19T13:22:40.337Z,5.50
2018-12-19T13:25:09.212Z,7.23
2018-12-19T13:27:37.971Z,4.80
2018-12-19T13:30:08.489Z,6.53
2018-12-19T13:32:37.280Z,4.97
2018-12-19T13:35:06.047Z,6.53
2018-12-19T13:37:34.748Z,7.37
2018-12-19T13:40:03.630Z,8.40
2018-12-19T13:42:32.377Z,2.60
2018-12-19T13:45:01.049Z,4.97
2018-12-19T13:47:29.680Z,6.30
2018-12-19T13:49:58.476Z,2.77
2018-12-19T13:52:27.154Z,4.23
2018-12-19T13:54:55.787Z,3.63
2018-12-19T13:57:24.420Z,5.90
2018-12-19T13:59:53.348Z,5.77
2018-12-19T14:02:22.011Z,4.77
2018-12-19T14:04:50.980Z,5.77
2018-12-19T14:07:19.750Z,4.33
2018-12-19T14:09:48.645Z,3.60
2018-12-19T14:12:17.331Z,6.07
2018-12-19T14:14:45.926Z,5.27
2018-12-19T14:17:14.648Z,6.03
2018-12-19T14:19:43.233Z,15.00
2018-12-19T14:22:11.825Z,36.73
2018-12-19T14:24:41.982Z,5.00
2018-12-19T14:27:10.992Z,3.57
2018-12-19T14:29:39.629Z,4.90
2018-12-19T14:32:08.198Z,4.20
2018-12-19T14:34:36.903Z,4.23
2018-12-19T14:37:05.455Z,3.40
2018-12-19T14:39:34.170Z,6.27
2018-12-19T14:42:03.003Z,7.50
2018-12-19T14:44:31.557Z,3.37
2018-12-19T14:47:00.274Z,2.63
2018-12-19T14:49:28.909Z,4.10
2018-12-19T14:51:57.544Z,3.83
2018-12-19T14:54:26.179Z,6.17
2018-12-19T14:56:54.813Z,4.30
2018-12-19T14:59:23.361Z,3.80
2018-12-19T15:01:52.084Z,4.90
2018-12-19T15:04:20.917Z,3.90
2018-12-19T15:06:49.552Z,4.67
2018-12-19T15:09:18.187Z,3.60
2018-12-19T15:11:46.747Z,3.00
2018-12-19T15:14:15.390Z,5.33
2018-12-19T15:16:44.092Z,7.13
2018-12-19T15:19:12.651Z,2.50
2018-12-19T15:21:41.363Z,6.90
2018-12-19T15:24:10.112Z,2.07
2018-12-19T15:26:38.801Z,2.33
2018-12-19T15:29:07.467Z,2.90
2018-12-19T15:31:36.173Z,5.10
2018-12-19T15:34:04.933Z,4.87
2018-12-19T15:36:34.095Z,6.70
2018-12-19T15:39:03.057Z,5.57
2018-12-19T15:41:31.805Z,2.87
2018-12-19T15:44:00.460Z,3.27
2018-12-19T15:46:29.095Z,6.40
2018-12-19T15:48:57.659Z,5.53
2018-12-19T15:51:26.274Z,4.53
2018-12-19T15:53:54.999Z,6.37
2018-12-19T15:56:23.559Z,5.37
2018-12-19T15:58:52.269Z,3.67
2018-12-19T16:01:20.907Z,3.77
2018-12-19T16:03:49.463Z,4.93
2018-12-19T16:06:18.054Z,2.50
2018-12-19T16:08:46.615Z,2.97
2018-12-19T16:11:15.448Z,3.57
2018-12-19T16:13:44.480Z,1.90
2018-12-19T16:16:13.301Z,1.83
2018-12-19T16:18:41.810Z,2.73
2018-12-19T16:21:10.457Z,2.03
2018-12-19T16:23:39.174Z,2.07
2018-12-19T16:26:07.850Z,4.50
2018-12-19T16:28:36.409Z,4.00
2018-12-19T16:31:05.119Z,1.60
2018-12-19T16:33:33.755Z,2.60
2018-12-19T16:36:02.395Z,2.27
2018-12-19T16:38:31.026Z,3.10
2018-12-19T16:41:00.250Z,1.30
2018-12-19T16:43:28.989Z,1.30
2018-12-19T16:45:57.719Z,3.20
2018-12-19T16:48:26.353Z,4.93
2018-12-19T16:50:54.919Z,1.83
2018-12-19T16:53:23.533Z,4.10
2018-12-19T16:55:51.975Z,3.13
2018-12-19T16:58:20.698Z,3.37
2018-12-19T17:00:49.335Z,5.17
2018-12-19T17:03:17.968Z,4.63
2018-12-19T17:05:46.522Z,3.23
2018-12-19T17:08:15.043Z,3.47
2018-12-19T17:10:43.603Z,3.93
2018-12-19T17:13:12.314Z,5.63
2018-12-19T17:15:40.949Z,5.30
2018-12-19T17:18:09.512Z,3.00
2018-12-19T17:20:38.100Z,6.57
2018-12-19T17:23:06.858Z,5.10
2018-12-19T17:25:35.660Z,5.77
2018-12-19T17:28:04.399Z,3.10
2018-12-19T17:30:33.548Z,5.60
2018-12-19T17:33:02.114Z,4.23
2018-12-19T17:35:30.781Z,8.77
2018-12-19T17:37:59.650Z,3.73
2018-12-19T17:40:28.215Z,9.17
2018-12-19T17:42:59.538Z,7.37
2018-12-19T17:45:27.720Z,7.27
2018-12-19T17:47:56.463Z,7.57
2018-12-19T17:50:25.187Z,6.43
2018-12-19T17:52:53.754Z,10.63
2018-12-19T17:55:22.368Z,10.60
2018-12-19T17:57:51.613Z,8.70
2018-12-19T18:00:20.319Z,10.17
2018-12-19T18:02:48.957Z,7.60
2018-12-19T18:05:17.713Z,7.87
2018-12-19T18:07:46.376Z,8.17
2018-12-19T18:10:15.059Z,7.25
2018-12-19T18:12:43.665Z,5.60
2018-12-19T18:15:12.347Z,7.20
2018-12-19T18:17:41.173Z,6.07
2018-12-19T18:20:09.993Z,7.67
2018-12-19T18:22:38.823Z,4.57
2018-12-19T18:25:07.774Z,5.63
2018-12-19T18:27:36.489Z,4.73
2018-12-19T18:30:07.536Z,6.17
2018-12-19T18:32:35.951Z,5.90
2018-12-19T18:35:06.000Z,8.27
2018-12-19T18:37:34.761Z,8.20
2018-12-19T18:40:03.858Z,7.87
2018-12-19T18:42:32.544Z,6.17
2018-12-19T18:45:01.271Z,8.20
2018-12-19T18:47:29.896Z,7.83
2018-12-19T18:49:58.728Z,7.40
2018-12-19T18:52:27.364Z,7.07
2018-12-19T18:54:56.156Z,8.10
2018-12-19T18:57:24.949Z,8.97
2018-12-19T18:59:53.586Z,11.20
2018-12-19T19:02:22.495Z,9.53
2018-12-19T19:04:51.050Z,9.77
2018-12-19T19:07:19.765Z,11.90
2018-12-19T19:09:49.078Z,9.77
2018-12-19T19:12:18.020Z,9.97
2018-12-19T19:14:46.658Z,10.03
2018-12-19T19:17:15.290Z,11.00
2018-12-19T19:19:43.905Z,9.77
2018-12-19T19:22:12.673Z,8.13
2018-12-19T19:24:41.393Z,13.90
2018-12-19T19:27:09.958Z,13.00
2018-12-19T19:29:38.470Z,12.57
2018-12-19T19:32:07.299Z,11.40
2018-12-19T19:34:35.934Z,12.63
2018-12-19T19:37:04.653Z,13.33
2018-12-19T19:39:33.369Z,10.40
2018-12-19T19:42:02.041Z,12.10
2018-12-19T19:44:30.870Z,10.37
2018-12-19T19:46:59.701Z,10.13
2018-12-19T19:49:28.336Z,14.07
2018-12-19T19:51:56.973Z,10.60
2018-12-19T19:54:25.807Z,14.27
2018-12-19T19:56:54.418Z,14.10
2018-12-19T19:59:22.984Z,14.30
2018-12-19T20:01:51.711Z,19.40
2018-12-19T20:04:20.542Z,15.93
2018-12-19T20:06:49.087Z,10.77
2018-12-19T20:09:17.616Z,11.60
2018-12-19T20:11:46.251Z,11.63
2018-12-19T20:14:14.862Z,8.40
2018-12-19T20:16:49.153Z,11.07
2018-12-19T20:19:17.623Z,11.30
2018-12-19T20:21:46.296Z,13.67
2018-12-19T20:24:14.934Z,14.87
2018-12-19T20:26:43.698Z,20.70
2018-12-19T20:29:12.400Z,27.60
2018-12-19T20:31:41.108Z,26.17
2018-12-19T20:34:09.774Z,30.97
2018-12-19T20:36:38.502Z,32.37
2018-12-19T20:39:08.494Z,31.87
2018-12-19T20:41:37.253Z,33.13
2018-12-19T20:44:05.918Z,37.40
2018-12-19T20:46:34.615Z,38.63
2018-12-19T20:49:03.450Z,40.37
2018-12-19T20:51:31.996Z,46.70
2018-12-19T20:54:00.736Z,43.60
2018-12-19T20:56:29.354Z,39.67
2018-12-19T20:58:58.200Z,32.07
2018-12-19T21:01:26.820Z,34.67
2018-12-19T21:03:55.707Z,34.33
2018-12-19T21:06:24.450Z,35.03
2018-12-19T21:08:53.418Z,35.37
2018-12-19T21:11:21.951Z,36.77
2018-12-19T21:13:50.587Z,35.47
2018-12-19T21:16:21.389Z,49.07
2018-12-19T21:18:52.183Z,102.43
2018-12-19T21:21:20.819Z,84.53
2018-12-19T21:23:49.645Z,76.63
2018-12-19T21:26:18.213Z,68.83
2018-12-19T21:28:46.882Z,113.47
2018-12-19T21:31:15.623Z,123.93
2018-12-19T21:33:44.420Z,111.70
2018-12-19T21:36:13.611Z,85.80
2018-12-19T21:38:42.509Z,67.50
2018-12-19T21:41:11.080Z,57.30
2018-12-19T21:43:39.857Z,57.83
2018-12-19T21:46:08.539Z,69.80
2018-12-19T21:48:37.184Z,82.13
2018-12-19T21:51:05.819Z,68.73
2018-12-19T21:53:34.650Z,85.83
2018-12-19T21:56:03.246Z,88.83
2018-12-19T21:58:31.969Z,102.33
2018-12-19T22:01:00.722Z,88.83
2018-12-19T22:03:30.621Z,73.77
2018-12-19T22:05:59.067Z,67.27
2018-12-19T22:08:27.845Z,63.83
2018-12-19T22:10:56.477Z,55.50
2018-12-19T22:13:25.289Z,55.47
2018-12-19T22:15:54.141Z,52.67
2018-12-19T22:18:28.991Z,58.37
2018-12-19T22:20:57.981Z,58.73
2018-12-19T22:23:27.807Z,53.83
2018-12-19T22:25:56.451Z,56.07
2018-12-19T22:28:25.392Z,63.43
2018-12-19T22:30:54.404Z,62.40
2018-12-19T22:33:23.790Z,60.77
2018-12-19T22:35:52.655Z,50.20
2018-12-19T22:38:21.291Z,46.77
2018-12-19T22:40:49.928Z,49.27
2018-12-19T22:43:18.671Z,45.67
2018-12-19T22:45:47.215Z,46.30
2018-12-19T22:48:16.369Z,37.90
2018-12-19T22:50:45.256Z,37.50
2018-12-19T22:53:14.026Z,36.10
2018-12-19T22:55:42.912Z,32.50
2018-12-19T22:58:11.759Z,34.20
2018-12-19T23:00:46.792Z,27.73
2018-12-19T23:03:15.452Z,30.10
2018-12-19T23:05:49.576Z,24.50
2018-12-19T23:08:19.976Z,24.97
2018-12-19T23:10:49.025Z,24.83
2018-12-19T23:13:17.738Z,24.17
2018-12-19T23:15:46.276Z,23.10
2018-12-19T23:18:20.625Z,22.10
2018-12-19T23:20:49.885Z,23.97
2018-12-19T23:23:18.590Z,21.17
2018-12-19T23:25:47.580Z,22.43
2018-12-19T23:28:16.804Z,25.73
2018-12-19T23:30:45.474Z,25.50
2018-12-19T23:33:14.453Z,30.80
2018-12-19T23:35:43.198Z,28.67
2018-12-19T23:38:11.915Z,24.93
2018-12-19T23:40:42.114Z,29.17
2018-12-19T23:43:11.091Z,32.20
2018-12-19T23:45:39.805Z,30.00
2018-12-19T23:48:08.343Z,23.60
2018-12-19T23:50:37.273Z,18.30
2018-12-19T23:53:06.227Z,17.63
2018-12-19T23:55:35.119Z,14.73
2018-12-19T23:58:03.992Z,18.87
